Time;durP1;ratioP1;P1;durP2;ratioP2;P2;SDS_P1;SDS_P2;PMS_P1;PMS_P2;Temp;Humidity;BMP_temperature;BMP_pressure;BME280_temperature;BME280_humidity;BME280_pressure;Samples;Min_cycle;Max_cycle;Signal;HPM_P1;HPM_P2
2021/06/18 00:00:15;;;;;;;8.00;7.20;;;22.30;90.60;;;;;;5097558;28;20031;-78
2021/06/18 00:02:43;;;;;;;12.68;7.38;;;22.20;91.10;;;;;;5103620;28;20036;-78
2021/06/18 00:05:10;;;;;;;10.02;7.47;;;22.10;91.90;;;;;;5097503;28;20028;-78
2021/06/18 00:07:36;;;;;;;10.15;7.15;;;22.10;92.50;;;;;;5095006;28;20047;-78
2021/06/18 00:10:05;;;;;;;9.07;7.65;;;22.00;92.30;;;;;;5098359;28;20024;-78
2021/06/18 00:12:30;;;;;;;10.45;7.60;;;22.00;94.90;;;;;;5098123;28;20475;-78
2021/06/18 00:14:59;;;;;;;8.45;7.63;;;21.90;93.70;;;;;;5097314;28;20027;-78
2021/06/18 00:17:25;;;;;;;8.30;7.13;;;21.90;94.40;;;;;;5100919;28;20027;-78
2021/06/18 00:19:50;;;;;;;10.35;7.68;;;21.80;93.20;;;;;;5100391;28;20046;-78
2021/06/18 00:22:16;;;;;;;9.30;7.95;;;21.80;94.70;;;;;;5101858;28;20058;-78
2021/06/18 00:24:41;;;;;;;9.48;7.55;;;21.70;96.20;;;;;;5099780;28;20027;-80
2021/06/18 00:27:07;;;;;;;8.40;7.35;;;21.70;94.80;;;;;;5103712;28;20058;-77
2021/06/18 00:29:32;;;;;;;10.55;7.63;;;21.60;96.00;;;;;;5101022;28;20030;-77
2021/06/18 00:31:58;;;;;;;10.68;8.27;;;21.60;95.60;;;;;;5094738;28;20085;-77
2021/06/18 00:34:23;;;;;;;10.77;8.30;;;21.60;95.50;;;;;;5094624;28;20023;-77
2021/06/18 00:36:49;;;;;;;10.57;7.40;;;21.60;97.50;;;;;;5098213;28;20470;-78
2021/06/18 00:39:14;;;;;;;10.38;7.85;;;21.50;95.00;;;;;;5094628;28;20028;-78
2021/06/18 00:41:39;;;;;;;8.52;7.65;;;21.50;97.10;;;;;;5103435;28;20076;-78
2021/06/18 00:44:05;;;;;;;12.38;7.80;;;21.40;97.40;;;;;;5107582;28;20482;-78
2021/06/18 00:46:33;;;;;;;12.23;8.02;;;21.40;97.30;;;;;;5100047;28;20028;-79
2021/06/18 00:49:06;;;;;;;11.07;7.70;;;21.30;96.80;;;;;;5098218;28;20083;-78
2021/06/18 00:51:32;;;;;;;9.95;7.57;;;21.40;97.70;;;;;;5092438;28;20048;-78
2021/06/18 00:53:58;;;;;;;10.05;8.77;;;21.30;97.00;;;;;;5103478;28;20062;-78
2021/06/18 00:56:25;;;;;;;8.60;7.70;;;21.20;97.90;;;;;;5099132;28;20063;-78
2021/06/18 00:58:51;;;;;;;10.48;8.25;;;21.20;97.20;;;;;;5100904;27;20047;-78
2021/06/18 01:01:17;;;;;;;9.88;7.57;;;21.10;96.40;;;;;;5095296;28;20095;-78
2021/06/18 01:03:42;;;;;;;9.43;8.15;;;21.10;98.80;;;;;;5094244;28;20032;-78
2021/06/18 01:06:12;;;;;;;10.57;8.55;;;21.00;98.00;;;;;;5098526;28;20426;-78
2021/06/18 01:08:55;;;;;;;9.43;8.43;;;21.00;99.90;;;;;;5104584;28;20028;-78
2021/06/18 01:11:35;;;;;;;11.10;8.05;;;20.90;99.60;;;;;;5091272;28;20442;-78
2021/06/18 01:14:12;;;;;;;11.40;8.98;;;20.90;99.70;;;;;;5097971;28;20027;-78
2021/06/18 01:16:47;;;;;;;10.57;8.55;;;20.90;99.90;;;;;;5099395;28;20036;-77
2021/06/18 01:19:41;;;;;;;10.70;8.63;;;20.80;99.90;;;;;;5094935;28;20034;-77
2021/06/18 01:22:13;;;;;;;11.18;8.57;;;20.70;99.90;;;;;;5094964;28;20085;-77
2021/06/18 01:24:38;;;;;;;9.98;8.40;;;20.70;99.90;;;;;;5101412;28;20504;-77
2021/06/18 01:27:16;;;;;;;13.13;8.80;;;20.70;99.90;;;;;;5099827;28;20106;-77
2021/06/18 01:29:49;;;;;;;11.68;8.07;;;20.70;99.90;;;;;;5099547;28;20028;-77
2021/06/18 01:32:20;;;;;;;10.15;8.38;;;20.70;99.90;;;;;;5099712;28;20496;-77
2021/06/18 01:34:48;;;;;;;10.50;8.27;;;20.60;99.90;;;;;;5100009;28;20016;-77
2021/06/18 01:37:20;;;;;;;10.35;8.40;;;20.50;99.90;;;;;;5094777;28;20081;-77
2021/06/18 01:39:48;;;;;;;11.05;8.80;;;20.50;99.90;;;;;;5098512;28;20024;-77
2021/06/18 01:42:16;;;;;;;9.85;8.70;;;20.50;99.90;;;;;;5103424;28;20091;-77
2021/06/18 01:44:42;;;;;;;13.10;9.07;;;20.50;99.90;;;;;;5092901;28;20028;-77
2021/06/18 01:47:11;;;;;;;11.50;9.50;;;20.40;99.90;;;;;;5102358;28;20485;-78
2021/06/18 01:49:39;;;;;;;9.93;8.55;;;20.40;99.90;;;;;;5100242;28;20100;-78
2021/06/18 01:52:07;;;;;;;11.40;8.20;;;20.30;99.90;;;;;;5094186;28;20046;-78
2021/06/18 01:54:35;;;;;;;12.95;9.05;;;20.30;99.90;;;;;;5102392;28;20107;-78
2021/06/18 01:57:02;;;;;;;11.38;9.32;;;20.20;99.90;;;;;;5094632;28;20062;-78
2021/06/18 01:59:31;;;;;;;10.70;8.65;;;20.10;99.90;;;;;;5102541;28;20035;-78
2021/06/18 02:01:59;;;;;;;10.45;9.13;;;20.10;99.90;;;;;;5094688;28;20024;-78
2021/06/18 02:04:25;;;;;;;12.70;9.60;;;20.10;99.90;;;;;;5102212;28;20127;-78
2021/06/18 02:06:53;;;;;;;11.93;9.15;;;20.00;99.90;;;;;;5103748;28;20514;-78
2021/06/18 02:09:22;;;;;;;11.73;9.32;;;20.00;99.90;;;;;;5090044;28;20028;-78
2021/06/18 02:11:48;;;;;;;11.85;9.10;;;19.90;99.90;;;;;;5102838;28;20111;-79
2021/06/18 02:14:17;;;;;;;10.13;8.95;;;19.90;99.90;;;;;;5094155;28;20634;-79
2021/06/18 02:16:51;;;;;;;12.07;8.82;;;19.90;99.90;;;;;;5104490;28;20020;-79
2021/06/18 02:19:18;;;;;;;10.65;9.13;;;19.80;99.90;;;;;;5098999;28;20096;-79
2021/06/18 02:21:46;;;;;;;11.13;9.15;;;19.70;99.90;;;;;;5099073;28;20055;-79
2021/06/18 02:24:13;;;;;;;11.32;8.68;;;19.80;99.90;;;;;;5095986;28;20039;-79
2021/06/18 02:26:39;;;;;;;10.75;9.55;;;19.70;99.90;;;;;;5099556;28;20035;-78
2021/06/18 02:29:07;;;;;;;11.57;8.68;;;19.70;99.90;;;;;;5103996;28;20023;-79
2021/06/18 02:31:34;;;;;;;9.57;8.52;;;19.70;99.90;;;;;;5103451;28;20028;-79
2021/06/18 02:34:00;;;;;;;11.52;8.82;;;19.70;99.90;;;;;;5096659;28;20139;-79
2021/06/18 02:36:25;;;;;;;11.98;9.35;;;19.60;99.90;;;;;;5101141;28;20121;-79
2021/06/18 02:38:51;;;;;;;12.90;9.55;;;19.60;99.90;;;;;;5094274;28;20024;-79
2021/06/18 02:41:17;;;;;;;11.35;9.73;;;19.50;99.90;;;;;;5098381;28;20039;-79
2021/06/18 02:43:42;;;;;;;13.27;9.48;;;19.50;99.90;;;;;;5099712;28;20024;-79
2021/06/18 02:46:15;;;;;;;10.60;8.85;;;19.50;99.90;;;;;;5100309;28;20026;-79
2021/06/18 02:48:47;;;;;;;13.80;9.52;;;19.50;99.90;;;;;;5102475;28;20031;-78
2021/06/18 02:51:24;;;;;;;11.98;9.23;;;19.50;99.90;;;;;;5104261;28;20478;-78
2021/06/18 02:54:37;;;;;;;10.52;9.07;;;19.50;99.90;;;;;;5095775;28;20077;-78
2021/06/18 02:57:10;;;;;;;11.88;9.27;;;19.40;99.90;;;;;;5083240;28;20032;-79
2021/06/18 02:59:49;;;;;;;10.52;9.38;;;19.40;99.90;;;;;;5093324;28;20482;-79
2021/06/18 03:02:18;;;;;;;12.27;9.65;;;19.30;99.90;;;;;;5099841;28;20836;-79
2021/06/18 03:04:46;;;;;;;10.73;9.10;;;19.30;99.90;;;;;;5100337;28;20034;-79
2021/06/18 03:07:17;;;;;;;10.75;9.13;;;19.30;99.90;;;;;;5100289;28;20052;-79
2021/06/18 03:09:48;;;;;;;;;;;19.30;99.90;;;;;;5102515;28;20020;-79
2021/06/18 03:12:16;;;;;;;13.32;10.27;;;19.30;99.90;;;;;;5107568;28;19907;-79
2021/06/18 03:14:44;;;;;;;12.57;10.27;;;19.30;99.90;;;;;;5098743;28;20382;-78
2021/06/18 03:17:13;;;;;;;11.82;9.50;;;19.20;99.90;;;;;;5101522;28;20028;-79
2021/06/18 03:19:42;;;;;;;11.65;9.68;;;19.20;99.90;;;;;;5101462;28;20058;-78
2021/06/18 03:22:11;;;;;;;11.32;9.35;;;19.20;99.90;;;;;;5103178;28;20028;-78
2021/06/18 03:24:37;;;;;;;13.32;9.77;;;19.20;99.90;;;;;;5106650;28;20031;-78
2021/06/18 03:27:03;;;;;;;10.27;9.18;;;19.20;99.90;;;;;;5093812;28;20020;-78
2021/06/18 03:29:30;;;;;;;14.32;9.80;;;19.20;99.90;;;;;;5094675;28;20043;-78
2021/06/18 03:31:58;;;;;;;13.27;10.45;;;19.20;99.90;;;;;;5107440;28;20371;-78
2021/06/18 03:34:26;;;;;;;14.88;10.05;;;19.10;99.90;;;;;;5104689;28;20024;-79
2021/06/18 03:36:53;;;;;;;11.63;9.57;;;19.10;99.90;;;;;;5101107;28;20482;-78
2021/06/18 03:39:23;;;;;;;12.63;9.80;;;19.10;99.90;;;;;;5098307;28;20083;-78
2021/06/18 03:41:48;;;;;;;11.95;9.75;;;19.20;99.90;;;;;;5110203;28;20027;-78
2021/06/18 03:44:19;;;;;;;14.80;9.88;;;19.20;99.90;;;;;;5103853;28;20028;-78
2021/06/18 03:46:45;;;;;;;11.93;9.80;;;19.20;99.90;;;;;;5109604;28;20039;-78
2021/06/18 03:49:12;;;;;;;12.82;9.73;;;19.20;99.90;;;;;;5100805;28;20035;-78
2021/06/18 03:51:38;;;;;;;11.73;9.68;;;19.30;99.90;;;;;;5105068;28;20031;-78
2021/06/18 03:54:05;;;;;;;16.10;11.18;;;19.20;99.90;;;;;;5109113;28;20025;-78
2021/06/18 03:56:32;;;;;;;11.93;10.25;;;19.30;99.90;;;;;;5099684;28;20028;-78
2021/06/18 03:58:58;;;;;;;13.35;10.27;;;19.30;99.90;;;;;;5110380;28;20016;-78
2021/06/18 04:01:27;;;;;;;11.82;9.75;;;19.30;99.90;;;;;;5104342;28;20013;-78
2021/06/18 04:03:54;;;;;;;16.38;10.38;;;19.40;99.90;;;;;;5095956;28;20549;-78
2021/06/18 04:06:20;;;;;;;11.43;9.85;;;19.40;99.90;;;;;;5094020;28;20040;-79
2021/06/18 04:08:46;;;;;;;14.55;9.90;;;19.50;99.90;;;;;;5105683;28;20028;-79
2021/06/18 04:11:13;;;;;;;14.68;10.98;;;19.50;99.90;;;;;;5098273;28;20031;-78
2021/06/18 04:13:40;;;;;;;12.57;10.00;;;19.50;99.90;;;;;;5107049;28;20024;-78
2021/06/18 04:16:07;;;;;;;11.98;9.75;;;19.60;99.90;;;;;;5105339;28;20046;-78
2021/06/18 04:18:34;;;;;;;13.65;9.95;;;19.60;99.90;;;;;;5107069;28;20034;-78
2021/06/18 04:21:04;;;;;;;14.82;10.43;;;19.70;99.90;;;;;;5100341;28;20035;-79
2021/06/18 04:23:29;;;;;;;12.80;10.63;;;19.80;99.90;;;;;;5108126;28;20497;-79
2021/06/18 04:25:56;;;;;;;16.23;10.80;;;19.90;99.90;;;;;;5098751;28;20020;-78
2021/06/18 04:28:22;;;;;;;12.70;10.60;;;20.00;99.90;;;;;;5107845;28;20032;-78
2021/06/18 04:30:48;;;;;;;13.13;10.63;;;20.00;99.90;;;;;;5104584;28;20029;-77
2021/06/18 04:33:14;;;;;;;14.75;9.63;;;20.00;99.90;;;;;;5100215;28;20111;-77
2021/06/18 04:35:39;;;;;;;14.25;9.57;;;20.10;99.90;;;;;;5101879;28;20023;-76
2021/06/18 04:38:05;;;;;;;11.70;9.65;;;20.20;99.90;;;;;;5102666;28;20051;-77
2021/06/18 04:40:30;;;;;;;13.48;9.50;;;20.20;99.90;;;;;;5097584;28;20020;-78
2021/06/18 04:42:56;;;;;;;11.43;9.52;;;20.30;99.90;;;;;;5097649;28;20107;-78
2021/06/18 04:45:21;;;;;;;12.30;10.13;;;20.30;99.90;;;;;;5099217;27;20055;-78
2021/06/18 04:47:47;;;;;;;15.15;9.30;;;20.40;99.90;;;;;;5104717;28;20035;-78
2021/06/18 04:50:13;;;;;;;14.68;9.80;;;20.50;99.90;;;;;;5103882;28;20015;-78
2021/06/18 04:52:44;;;;;;;13.20;9.65;;;20.50;99.90;;;;;;5098073;28;20492;-78
2021/06/18 04:55:14;;;;;;;10.93;8.65;;;20.60;99.90;;;;;;5104118;28;20554;-77
2021/06/18 04:57:40;;;;;;;11.70;9.02;;;20.60;99.90;;;;;;5099939;28;20031;-77
2021/06/18 05:00:06;;;;;;;14.60;9.10;;;20.70;99.90;;;;;;5094166;28;20283;-86
2021/06/18 05:02:32;;;;;;;10.90;8.43;;;20.80;99.90;;;;;;5093490;28;20036;-74
2021/06/18 05:04:57;;;;;;;12.57;9.25;;;20.80;99.90;;;;;;5095033;28;20089;-77
2021/06/18 05:07:23;;;;;;;10.40;8.55;;;20.90;99.90;;;;;;5099471;28;20498;-80
2021/06/18 05:09:48;;;;;;;14.02;8.75;;;20.90;99.90;;;;;;5101038;28;20359;-80
2021/06/18 05:12:14;;;;;;;10.10;8.25;;;20.90;99.90;;;;;;5106565;28;20035;-80
2021/06/18 05:14:39;;;;;;;13.98;8.50;;;21.10;99.90;;;;;;5099353;28;20066;-80
2021/06/18 05:17:05;;;;;;;9.95;7.60;;;21.30;99.90;;;;;;5103053;28;20042;-75
2021/06/18 05:19:30;;;;;;;9.23;7.78;;;21.40;99.50;;;;;;5098924;28;20038;-78
2021/06/18 05:21:59;;;;;;;13.90;7.90;;;21.50;98.40;;;;;;5095883;28;20045;-78
2021/06/18 05:24:25;;;;;;;12.88;8.15;;;21.70;97.40;;;;;;5095773;28;20431;-78
2021/06/18 05:26:50;;;;;;;10.55;8.05;;;21.70;97.10;;;;;;5104282;28;20096;-78
2021/06/18 05:29:16;;;;;;;9.82;7.82;;;21.80;96.50;;;;;;5099137;28;20023;-79
2021/06/18 05:31:41;;;;;;;11.13;8.00;;;22.00;95.60;;;;;;5093094;28;20506;-79
2021/06/18 05:34:07;;;;;;;10.02;7.90;;;22.00;95.40;;;;;;5096610;28;20056;-78
2021/06/18 05:36:32;;;;;;;9.23;7.40;;;22.10;95.50;;;;;;5107045;28;20642;-78
2021/06/18 05:38:58;;;;;;;9.02;8.02;;;22.10;95.20;;;;;;5097262;28;20032;-78
2021/06/18 05:41:23;;;;;;;13.27;8.15;;;22.10;95.00;;;;;;5097132;28;20023;-78
2021/06/18 05:43:49;;;;;;;16.08;8.02;;;22.20;94.20;;;;;;5097111;28;20027;-79
2021/06/18 05:46:15;;;;;;;8.70;7.32;;;22.30;94.30;;;;;;5100935;28;20038;-78
2021/06/18 05:48:40;;;;;;;10.18;7.45;;;22.30;94.10;;;;;;5102951;28;20020;-78
2021/06/18 05:51:15;;;;;;;8.80;7.30;;;22.40;93.60;;;;;;5104562;28;20482;-78
2021/06/18 05:53:41;;;;;;;8.88;7.38;;;22.40;93.10;;;;;;5102466;28;20120;-78
2021/06/18 05:56:09;;;;;;;13.90;7.88;;;22.40;93.40;;;;;;5097073;28;20237;-76
2021/06/18 05:58:34;;;;;;;8.93;7.20;;;22.50;93.20;;;;;;5094070;28;20031;-77
2021/06/18 06:01:00;;;;;;;11.88;7.22;;;22.60;93.10;;;;;;5099069;28;20034;-77
2021/06/18 06:03:26;;;;;;;11.18;6.70;;;22.70;92.10;;;;;;5094575;28;20505;-82
2021/06/18 06:05:51;;;;;;;9.77;6.85;;;22.80;91.60;;;;;;5094678;28;20034;-82
2021/06/18 06:08:17;;;;;;;7.22;6.38;;;22.90;91.50;;;;;;5100048;28;20033;-84
2021/06/18 06:10:49;;;;;;;10.85;7.07;;;22.90;91.20;;;;;;5108948;28;20019;-83
2021/06/18 06:13:16;;;;;;;8.63;6.88;;;22.90;90.40;;;;;;5102042;28;20028;-83
2021/06/18 06:15:42;;;;;;;8.07;6.20;;;23.00;90.50;;;;;;5105377;28;20080;-82
2021/06/18 06:18:08;;;;;;;8.57;6.60;;;23.00;88.50;;;;;;5102769;28;20032;-83
2021/06/18 06:20:33;;;;;;;8.75;6.30;;;23.10;88.70;;;;;;5099778;28;20024;-83
2021/06/18 06:22:59;;;;;;;9.13;6.57;;;23.10;88.90;;;;;;5089519;28;20105;-80
2021/06/18 06:25:24;;;;;;;11.35;6.30;;;23.20;89.20;;;;;;5093932;28;20123;-77
2021/06/18 06:27:50;;;;;;;9.85;6.72;;;23.30;88.50;;;;;;5100259;28;20027;-80
2021/06/18 06:30:15;;;;;;;10.85;6.32;;;23.30;86.80;;;;;;5105748;28;20031;-76
2021/06/18 06:32:41;;;;;;;7.60;5.75;;;23.40;87.40;;;;;;5108234;28;20108;-83
2021/06/18 06:35:07;;;;;;;9.32;6.03;;;23.50;87.10;;;;;;5098381;28;20038;-83
2021/06/18 06:37:32;;;;;;;7.28;5.72;;;23.50;85.90;;;;;;5102816;28;20036;-85
2021/06/18 06:39:58;;;;;;;7.70;5.32;;;23.60;84.50;;;;;;5106607;28;20111;-86
2021/06/18 06:42:24;;;;;;;7.35;5.68;;;23.60;83.80;;;;;;5107254;28;20019;-86
2021/06/18 06:44:49;;;;;;;7.15;6.10;;;23.70;84.10;;;;;;5098574;28;20028;-85
2021/06/18 06:47:15;;;;;;;8.90;5.70;;;23.70;83.50;;;;;;5103697;28;20030;-84
2021/06/18 06:49:40;;;;;;;8.88;5.30;;;23.70;82.80;;;;;;5095547;28;20122;-84
2021/06/18 06:52:07;;;;;;;12.20;5.47;;;23.70;83.20;;;;;;5107326;28;20065;-85
2021/06/18 06:54:32;;;;;;;8.25;5.38;;;23.90;79.80;;;;;;5108726;28;20023;-85
2021/06/18 06:56:58;;;;;;;5.90;4.85;;;24.20;78.50;;;;;;5099307;28;20028;-85
2021/06/18 06:59:23;;;;;;;8.23;4.97;;;24.20;78.00;;;;;;5097526;28;20035;-84
2021/06/18 07:01:49;;;;;;;5.88;4.43;;;24.40;76.60;;;;;;5095977;28;20020;-85
2021/06/18 07:04:14;;;;;;;5.43;4.75;;;24.50;76.60;;;;;;5095836;28;20054;-84
2021/06/18 07:06:40;;;;;;;9.18;5.00;;;24.50;76.80;;;;;;5104135;28;20050;-85
2021/06/18 07:09:07;;;;;;;8.15;4.80;;;24.60;75.90;;;;;;5097779;28;20483;-87
2021/06/18 07:11:32;;;;;;;7.72;5.07;;;24.60;74.70;;;;;;5093934;28;20030;-80
2021/06/18 07:13:58;;;;;;;9.13;4.30;;;24.60;73.10;;;;;;5107232;28;20497;-83
2021/06/18 07:16:25;;;;;;;5.97;4.70;;;24.90;72.60;;;;;;5096947;28;20648;-81
2021/06/18 07:18:51;;;;;;;11.43;4.28;;;25.00;72.50;;;;;;5101724;28;20032;-82
2021/06/18 07:21:16;;;;;;;8.30;4.57;;;25.10;71.10;;;;;;5107031;28;20471;-83
2021/06/18 07:23:43;;;;;;;5.40;4.15;;;25.20;70.50;;;;;;5110514;28;20034;-84
2021/06/18 07:26:09;;;;;;;8.20;4.38;;;25.10;69.60;;;;;;5104593;28;20035;-81
2021/06/18 07:28:35;;;;;;;4.78;4.25;;;25.40;69.40;;;;;;5098891;28;20072;-79
2021/06/18 07:31:01;;;;;;;5.75;4.45;;;25.30;69.40;;;;;;5107661;28;20043;-80
2021/06/18 07:33:26;;;;;;;8.65;4.35;;;25.30;69.60;;;;;;5107757;28;20163;-81
2021/06/18 07:35:52;;;;;;;11.02;4.72;;;25.40;68.80;;;;;;5110946;28;20599;-78
2021/06/18 07:38:18;;;;;;;5.10;4.10;;;25.40;67.90;;;;;;5108420;28;20031;-78
2021/06/18 07:40:43;;;;;;;6.10;4.20;;;25.50;65.50;;;;;;5104313;28;20058;-78
2021/06/18 07:43:09;;;;;;;5.30;4.30;;;25.90;63.20;;;;;;5109962;28;20386;-78
2021/06/18 07:45:34;;;;;;;8.23;4.78;;;25.90;64.10;;;;;;5094515;28;20047;-79
2021/06/18 07:48:02;;;;;;;8.77;4.50;;;25.80;65.90;;;;;;5101744;28;20389;-84
2021/06/18 07:50:28;;;;;;;4.25;3.70;;;25.70;66.00;;;;;;5105602;28;20031;-75
2021/06/18 07:52:54;;;;;;;5.05;4.20;;;25.80;65.20;;;;;;5110131;28;20613;-78
2021/06/18 07:55:21;;;;;;;10.52;4.30;;;26.00;62.60;;;;;;5100924;28;20012;-79
2021/06/18 07:57:47;;;;;;;8.35;4.13;;;26.10;62.00;;;;;;5103888;28;20051;-78
2021/06/18 08:00:14;;;;;;;5.32;3.90;;;26.30;60.90;;;;;;5106468;28;20057;-78
2021/06/18 08:02:40;;;;;;;5.28;3.67;;;26.30;61.60;;;;;;5099702;28;20612;-78
2021/06/18 08:05:06;;;;;;;5.63;3.80;;;26.30;60.70;;;;;;5096636;28;20036;-78
2021/06/18 08:07:32;;;;;;;6.70;3.97;;;26.50;60.00;;;;;;5105002;28;20044;-78
2021/06/18 08:09:57;;;;;;;4.85;3.72;;;26.60;60.70;;;;;;5091775;28;20055;-80
2021/06/18 08:12:23;;;;;;;5.32;3.47;;;26.50;61.30;;;;;;5097337;28;20139;-82
2021/06/18 08:14:49;;;;;;;5.60;3.70;;;26.40;60.10;;;;;;5109012;28;20031;-79
2021/06/18 08:17:15;;;;;;;6.40;4.07;;;26.40;62.90;;;;;;5110687;28;20026;-81
2021/06/18 08:19:41;;;;;;;7.30;4.30;;;26.30;60.50;;;;;;5111449;28;20028;-79
2021/06/18 08:22:06;;;;;;;8.55;3.80;;;26.50;59.80;;;;;;5100413;28;20044;-80
2021/06/18 08:24:33;;;;;;;7.28;3.40;;;26.50;61.20;;;;;;5103537;28;20438;-79
2021/06/18 08:26:59;;;;;;;5.75;4.10;;;26.60;58.20;;;;;;5104971;28;20114;-80
2021/06/18 08:29:25;;;;;;;4.13;3.67;;;27.00;57.50;;;;;;5103596;28;20493;-80
2021/06/18 08:31:50;;;;;;;6.15;3.67;;;26.90;57.70;;;;;;5111720;28;20027;-79
2021/06/18 08:34:25;;;;;;;5.15;3.55;;;26.80;58.90;;;;;;5111512;28;20016;-82
2021/06/18 08:36:52;;;;;;;9.52;3.60;;;26.80;59.30;;;;;;5098859;28;20027;-77
2021/06/18 08:39:17;;;;;;;4.97;3.95;;;26.70;59.60;;;;;;5093632;28;20078;-79
2021/06/18 08:41:43;;;;;;;3.88;3.30;;;26.60;58.40;;;;;;5109682;28;20554;-80
2021/06/18 08:44:08;;;;;;;4.65;3.10;;;26.60;58.20;;;;;;5108464;28;20039;-80
2021/06/18 08:46:34;;;;;;;4.30;3.25;;;26.60;55.10;;;;;;5107192;28;20036;-80
2021/06/18 08:48:59;;;;;;;6.00;3.63;;;26.80;58.20;;;;;;5101397;28;20024;-81
2021/06/18 08:51:25;;;;;;;3.50;3.17;;;26.80;54.50;;;;;;5105950;28;20471;-78
2021/06/18 08:53:51;;;;;;;3.53;2.78;;;26.90;55.10;;;;;;5111039;28;20032;-79
2021/06/18 08:56:18;;;;;;;3.80;3.13;;;27.20;52.10;;;;;;5108203;28;20027;-78
2021/06/18 08:58:43;;;;;;;7.20;3.25;;;27.20;56.20;;;;;;5097328;28;20477;-78
2021/06/18 09:01:09;;;;;;;3.92;3.30;;;27.50;52.40;;;;;;5102733;28;20092;-78
2021/06/18 09:03:44;;;;;;;4.40;3.70;;;27.80;52.40;;;;;;5109605;28;20020;-78
2021/06/18 09:06:31;;;;;;;4.47;3.45;;;27.70;54.20;;;;;;5109421;28;20431;-78
2021/06/18 09:09:20;;;;;;;3.97;3.20;;;27.60;51.70;;;;;;5108574;28;20053;-76
2021/06/18 09:12:01;;;;;;;6.25;3.58;;;27.50;54.30;;;;;;5110364;28;20031;-77
2021/06/18 09:14:35;;;;;;;12.40;3.65;;;27.40;54.20;;;;;;5095063;28;20039;-79
2021/06/18 09:17:17;;;;;;;5.10;3.30;;;27.50;52.90;;;;;;5097594;28;20027;-76
2021/06/18 09:19:47;;;;;;;9.40;3.72;;;27.80;52.40;;;;;;5105480;28;20164;-77
2021/06/18 09:22:24;;;;;;;4.85;3.70;;;27.90;52.10;;;;;;5103326;28;20402;-77
2021/06/18 09:25:10;;;;;;;5.53;3.40;;;28.00;51.50;;;;;;5103094;28;20034;-78
2021/06/18 09:27:42;;;;;;;4.13;3.22;;;28.20;52.90;;;;;;5090155;28;20431;-77
2021/06/18 09:30:34;;;;;;;5.35;3.63;;;28.10;53.00;;;;;;5103665;28;20098;-78
2021/06/18 09:33:12;;;;;;;3.85;3.38;;;28.10;52.70;;;;;;5102446;28;20041;-78
2021/06/18 09:36:05;;;;;;;4.32;3.25;;;28.40;52.10;;;;;;5107862;28;20031;-78
2021/06/18 09:38:41;;;;;;;6.15;3.30;;;28.40;50.50;;;;;;5090140;28;20030;-78
2021/06/18 09:41:45;;;;;;;4.55;3.70;;;28.40;50.90;;;;;;5098611;28;20092;-78
2021/06/18 09:44:19;;;;;;;4.03;3.13;;;28.20;51.30;;;;;;5091674;28;20040;-78
2021/06/18 09:46:56;;;;;;;6.80;3.67;;;28.00;51.70;;;;;;5100141;28;20418;-77
2021/06/18 09:49:30;;;;;;;5.65;3.40;;;28.00;52.00;;;;;;5106884;28;20023;-78
2021/06/18 09:52:01;;;;;;;5.00;3.55;;;27.90;54.00;;;;;;5100552;28;20020;-78
2021/06/18 09:54:32;;;;;;;5.18;3.65;;;27.80;52.60;;;;;;5103549;28;20031;-77
2021/06/18 09:57:05;;;;;;;4.22;3.53;;;27.70;55.30;;;;;;5100476;28;20032;-77
2021/06/18 09:59:31;;;;;;;4.88;3.55;;;28.20;48.70;;;;;;5100716;28;20038;-78
2021/06/18 10:01:56;;;;;;;4.72;3.20;;;28.60;49.20;;;;;;5100319;28;20024;-77
2021/06/18 10:04:25;;;;;;;4.75;4.00;;;28.90;48.90;;;;;;5102111;28;20216;-81
2021/06/18 10:06:51;;;;;;;4.57;3.58;;;28.90;49.00;;;;;;5103161;28;20051;-84
2021/06/18 10:09:17;;;;;;;5.30;3.63;;;28.80;49.20;;;;;;5106338;28;20028;-87
2021/06/18 10:11:45;;;;;;;9.10;3.70;;;28.80;48.40;;;;;;5094715;28;20097;-85
2021/06/18 10:14:12;;;;;;;5.10;3.50;;;28.70;50.60;;;;;;5105414;28;20028;-86
2021/06/18 10:16:39;;;;;;;5.00;3.58;;;28.80;51.00;;;;;;5099397;28;20798;-85
2021/06/18 10:19:05;;;;;;;4.20;3.30;;;28.70;51.40;;;;;;5099544;28;20032;-77
2021/06/18 10:21:43;;;;;;;5.82;3.45;;;28.70;49.00;;;;;;5103968;28;20020;-77
2021/06/18 10:24:10;;;;;;;5.20;3.63;;;28.80;50.90;;;;;;5103994;28;20088;-83
2021/06/18 10:26:36;;;;;;;13.63;5.15;;;29.00;49.10;;;;;;5104031;28;20024;-82
2021/06/18 10:29:02;;;;;;;5.32;3.80;;;28.90;51.30;;;;;;5107361;28;20027;-81
2021/06/18 10:31:31;;;;;;;6.38;3.90;;;28.70;52.00;;;;;;5094509;28;20130;-82
2021/06/18 10:34:07;;;;;;;6.93;3.97;;;28.50;52.80;;;;;;5099266;28;20031;-82
2021/06/18 10:36:33;;;;;;;4.10;3.70;;;28.50;50.70;;;;;;5094375;28;20103;-83
2021/06/18 10:39:15;;;;;;;7.32;3.72;;;28.60;54.10;;;;;;5103523;28;20102;-82
2021/06/18 10:42:00;;;;;;;5.05;4.22;;;28.70;51.40;;;;;;5102879;28;20095;-81
2021/06/18 10:44:40;;;;;;;4.25;3.63;;;28.80;50.30;;;;;;5107891;28;20024;-79
2021/06/18 10:47:24;;;;;;;7.72;3.75;;;28.90;50.10;;;;;;5098921;28;20039;-79
2021/06/18 10:49:52;;;;;;;5.28;3.60;;;29.10;50.20;;;;;;5108992;28;20047;-82
2021/06/18 10:52:22;;;;;;;10.77;3.60;;;29.10;49.40;;;;;;5107089;28;20031;-78
2021/06/18 10:54:52;;;;;;;3.50;3.20;;;29.30;50.60;;;;;;5093590;28;20031;-77
2021/06/18 10:57:19;;;;;;;4.57;3.40;;;29.50;49.60;;;;;;5098064;28;20107;-77
2021/06/18 10:59:55;;;;;;;6.57;3.42;;;29.90;48.00;;;;;;5099448;28;20032;-79
2021/06/18 11:02:21;;;;;;;5.25;3.70;;;29.90;48.50;;;;;;5101346;28;20031;-80
2021/06/18 11:04:51;;;;;;;4.00;3.60;;;29.80;49.30;;;;;;5100651;28;20031;-79
2021/06/18 11:07:21;;;;;;;3.90;3.47;;;29.70;49.80;;;;;;5106832;27;20511;-79
2021/06/18 11:09:52;;;;;;;8.32;3.60;;;29.70;50.40;;;;;;5103945;28;20020;-79
2021/06/18 11:12:24;;;;;;;4.93;3.72;;;29.70;50.10;;;;;;5098783;28;20430;-76
2021/06/18 11:14:50;;;;;;;3.90;3.25;;;29.60;49.50;;;;;;5101092;28;20024;-77
2021/06/18 11:17:37;;;;;;;6.10;3.28;;;30.30;45.90;;;;;;5097372;28;20065;-77
2021/06/18 11:20:14;;;;;;;8.48;3.45;;;30.60;48.10;;;;;;5100057;28;20055;-76
2021/06/18 11:25:49;;;;;;;5.25;3.25;;;30.40;48.00;;;;;;5095235;28;20027;-76
2021/06/18 11:28:20;;;;;;;4.00;3.58;;;31.20;42.50;;;;;;5105436;28;20027;-75
2021/06/18 11:30:53;;;;;;;3.83;3.42;;;31.70;45.40;;;;;;5095327;28;20251;-76
2021/06/18 11:33:36;;;;;;;3.92;3.40;;;32.00;43.20;;;;;;5100771;28;20020;-76
2021/06/18 11:36:32;;;;;;;6.43;3.25;;;32.80;42.20;;;;;;5105709;28;20051;-75
2021/06/18 11:39:10;;;;;;;5.28;3.38;;;33.00;41.10;;;;;;5093761;28;20032;-75
2021/06/18 11:41:42;;;;;;;4.53;3.50;;;33.20;42.30;;;;;;5096473;28;20485;-75
2021/06/18 11:44:10;;;;;;;3.90;3.53;;;33.40;41.70;;;;;;5100528;28;20059;-76
2021/06/18 11:46:39;;;;;;;6.25;3.60;;;33.40;40.90;;;;;;5096634;28;20465;-75
2021/06/18 11:49:12;;;;;;;5.00;3.30;;;33.50;41.50;;;;;;5095011;28;20034;-75
2021/06/18 11:51:38;;;;;;;4.40;3.50;;;33.50;41.90;;;;;;5101068;28;20028;-75
2021/06/18 11:54:04;;;;;;;5.30;3.50;;;34.00;40.50;;;;;;5109398;28;20107;-75
2021/06/18 11:56:32;;;;;;;4.90;3.35;;;34.30;38.90;;;;;;5108445;27;20111;-76
2021/06/18 11:58:57;;;;;;;3.95;3.55;;;34.50;40.00;;;;;;5101084;28;20024;-76
2021/06/18 12:01:31;;;;;;;7.50;3.30;;;34.60;38.00;;;;;;5094797;28;20165;-74
2021/06/18 12:03:59;;;;;;;7.45;3.33;;;35.60;36.00;;;;;;5100732;28;20146;-75
2021/06/18 12:06:27;;;;;;;3.83;3.33;;;36.30;36.50;;;;;;5101492;28;20046;-75
2021/06/18 12:09:10;;;;;;;3.75;3.35;;;36.90;33.50;;;;;;5101976;28;20047;-75
2021/06/18 12:11:56;;;;;;;5.78;3.20;;;37.10;32.50;;;;;;5105654;28;20378;-75
2021/06/18 12:14:22;;;;;;;6.53;3.55;;;37.40;35.10;;;;;;5099938;28;20054;-75
2021/06/18 12:16:49;;;;;;;4.35;3.38;;;37.70;34.00;;;;;;5111335;28;20035;-75
2021/06/18 12:19:45;;;;;;;4.18;3.05;;;37.60;32.00;;;;;;5092098;28;20043;-78
2021/06/18 12:22:16;;;;;;;4.18;3.22;;;38.20;32.30;;;;;;5080707;28;20441;-75
2021/06/18 12:24:59;;;;;;;9.20;3.58;;;39.10;32.90;;;;;;5098610;27;20031;-74
2021/06/18 12:27:28;;;;;;;3.28;3.00;;;39.70;31.40;;;;;;5091758;28;20027;-74
2021/06/18 12:29:56;;;;;;;4.75;3.35;;;40.20;31.70;;;;;;5098139;28;20015;-72
2021/06/18 12:32:28;;;;;;;4.30;3.90;;;40.60;29.90;;;;;;5105546;27;20278;-75
2021/06/18 12:34:59;;;;;;;3.60;3.30;;;40.80;28.20;;;;;;5099387;28;20039;-75
2021/06/18 12:37:27;;;;;;;5.95;3.17;;;41.00;29.60;;;;;;5100068;28;20027;-73
2021/06/18 12:40:04;;;;;;;5.53;3.50;;;40.50;30.50;;;;;;5097289;28;20407;-73
2021/06/18 12:42:52;;;;;;;8.20;3.50;;;40.20;30.80;;;;;;5097187;28;20050;-75
2021/06/18 12:45:31;;;;;;;4.90;3.65;;;40.10;30.90;;;;;;5103404;28;20501;-74
2021/06/18 12:48:15;;;;;;;5.47;3.70;;;39.60;30.90;;;;;;5109679;28;20035;-75
2021/06/18 12:50:44;;;;;;;6.85;3.55;;;40.10;30.10;;;;;;5103167;28;20028;-75
2021/06/18 12:53:12;;;;;;;4.47;3.50;;;40.70;29.90;;;;;;5108166;27;20030;-75
2021/06/18 12:55:47;;;;;;;3.83;3.45;;;40.60;30.00;;;;;;5103744;28;20020;-76